Aviation Digital Data Service (ADDS)

Output produced by METARs form (0159 UTC 16 January 2019)
found at http://www.aviationweather.gov/metar/data/
 
VGEG 160100Z 36018KT 3100 HZ NSC 16/13 Q1016 NOSIG
TAF VGEG 152300Z 1600/1706 00000KT 2200 HZ SCT013 
     TEMPO 1601/1604 00000KT 1200 MIFG SCT007 
     BECMG 1604/1606 06008KT 4000 HZ FEW016 
     BECMG 1611/1613 35006KT 3500 HZ FEW016 
     TEMPO 1620/1704 00000KT 0800 FG BKN007 
     BECMG 1704/1706 09010KT 3600 HZ FEW018